createdAt,value
2017-10-09T00:00:01.534Z,1.60
2017-10-09T00:02:30.923Z,1.70
2017-10-09T00:05:00.129Z,1.63
2017-10-09T00:07:29.626Z,2.10
2017-10-09T00:09:59.986Z,1.60
2017-10-09T00:12:29.436Z,3.33
2017-10-09T00:14:59.158Z,1.93
2017-10-09T00:17:28.673Z,3.37
2017-10-09T00:19:58.232Z,1.80
2017-10-09T00:22:27.649Z,2.50
2017-10-09T00:24:57.073Z,1.57
2017-10-09T00:27:26.731Z,1.53
2017-10-09T00:30:05.610Z,1.83
2017-10-09T00:32:35.335Z,2.27
2017-10-09T00:35:04.276Z,1.70
2017-10-09T00:37:33.461Z,1.90
2017-10-09T00:40:02.634Z,2.00
2017-10-09T00:42:32.163Z,2.07
2017-10-09T00:45:01.554Z,2.27
2017-10-09T00:47:31.102Z,1.97
2017-10-09T00:50:00.685Z,2.33
2017-10-09T00:52:30.796Z,1.97
2017-10-09T00:55:00.164Z,2.00
2017-10-09T00:57:29.602Z,1.80
2017-10-09T00:59:59.701Z,1.90
2017-10-09T01:02:28.939Z,1.87
2017-10-09T01:04:59.243Z,1.77
2017-10-09T01:07:28.495Z,2.00
2017-10-09T01:09:57.278Z,1.77
2017-10-09T01:12:26.830Z,1.77
2017-10-09T01:14:55.629Z,4.20
2017-10-09T01:17:24.404Z,11.43
2017-10-09T01:19:53.254Z,8.87
2017-10-09T01:22:22.216Z,8.00
2017-10-09T01:24:51.793Z,7.70
2017-10-09T01:27:22.586Z,6.70
2017-10-09T01:29:52.236Z,5.97
2017-10-09T01:32:21.506Z,4.27
2017-10-09T01:34:50.717Z,4.13
2017-10-09T01:37:20.680Z,4.40
2017-10-09T01:39:49.765Z,3.80
2017-10-09T01:42:20.645Z,3.40
2017-10-09T01:44:50.029Z,3.77
2017-10-09T01:47:20.344Z,3.47
2017-10-09T01:49:50.345Z,3.63
2017-10-09T01:52:19.785Z,3.47
2017-10-09T01:54:49.136Z,3.87
2017-10-09T01:57:19.382Z,4.47
2017-10-09T01:59:48.851Z,4.70
2017-10-09T02:02:19.204Z,4.83
2017-10-09T02:04:48.367Z,4.30
2017-10-09T02:07:17.594Z,3.97
2017-10-09T02:09:47.115Z,4.50
2017-10-09T02:12:16.499Z,3.83
2017-10-09T02:14:47.455Z,3.73
2017-10-09T02:17:16.800Z,3.43
2017-10-09T02:19:47.238Z,4.40
2017-10-09T02:22:17.693Z,3.37
2017-10-09T02:24:48.556Z,3.30
2017-10-09T02:27:17.985Z,3.73
2017-10-09T02:29:47.898Z,4.83
2017-10-09T02:32:18.289Z,5.00
2017-10-09T02:34:47.927Z,4.77
2017-10-09T02:37:17.220Z,5.07
2017-10-09T02:39:46.744Z,6.37
2017-10-09T02:42:16.569Z,4.47
2017-10-09T02:44:45.715Z,5.53
2017-10-09T02:47:15.330Z,8.73
2017-10-09T02:49:45.424Z,5.60
2017-10-09T02:52:14.696Z,6.80
2017-10-09T02:54:44.086Z,5.50
2017-10-09T02:57:13.616Z,8.97
2017-10-09T02:59:42.983Z,7.10
2017-10-09T03:02:13.367Z,6.27
2017-10-09T03:04:43.839Z,6.87
2017-10-09T03:07:13.580Z,97.37
2017-10-09T03:09:43.052Z,51.77
2017-10-09T03:12:12.290Z,115.70
2017-10-09T03:14:42.026Z,61.23
2017-10-09T03:17:11.691Z,25.70
2017-10-09T03:19:41.287Z,22.37
2017-10-09T03:22:11.696Z,25.03
2017-10-09T03:24:41.142Z,46.07
2017-10-09T03:27:12.251Z,52.63
2017-10-09T03:29:45.682Z,40.27
2017-10-09T03:32:15.323Z,32.93
2017-10-09T03:34:44.653Z,27.10
2017-10-09T03:37:15.324Z,23.47
2017-10-09T03:39:45.862Z,19.17
2017-10-09T03:42:15.574Z,16.23
2017-10-09T03:44:45.156Z,17.07
2017-10-09T03:47:14.741Z,20.30
2017-10-09T03:49:44.231Z,17.47
2017-10-09T03:52:14.274Z,16.03
2017-10-09T03:54:43.865Z,14.37
2017-10-09T03:57:13.943Z,13.73
2017-10-09T03:59:43.479Z,16.33
2017-10-09T04:02:12.517Z,15.53
2017-10-09T04:04:41.751Z,11.47
2017-10-09T04:07:12.713Z,12.97
2017-10-09T04:09:42.790Z,12.13
2017-10-09T04:12:12.342Z,11.50
2017-10-09T04:14:42.383Z,10.70
2017-10-09T04:17:12.103Z,10.37
2017-10-09T04:19:41.490Z,8.80
2017-10-09T04:22:10.880Z,8.77
2017-10-09T04:24:40.488Z,9.50
2017-10-09T04:27:09.946Z,9.27
2017-10-09T04:29:39.267Z,13.10
2017-10-09T04:32:07.931Z,14.70
2017-10-09T04:34:37.322Z,30.70
2017-10-09T04:37:06.463Z,48.30
2017-10-09T04:39:35.589Z,42.50
2017-10-09T04:42:05.794Z,35.43
2017-10-09T04:44:35.123Z,35.17
2017-10-09T04:47:04.322Z,50.40
2017-10-09T04:49:33.662Z,63.63
2017-10-09T04:52:02.971Z,65.37
2017-10-09T04:54:32.152Z,49.20
2017-10-09T04:57:01.674Z,38.43
2017-10-09T04:59:30.996Z,37.27
2017-10-09T05:02:00.200Z,34.30
2017-10-09T05:04:29.242Z,24.10
2017-10-09T05:06:58.304Z,13.87
2017-10-09T05:09:29.008Z,12.17
2017-10-09T05:11:58.156Z,16.53
2017-10-09T05:14:27.534Z,14.30
2017-10-09T05:16:57.665Z,15.90
2017-10-09T05:19:26.991Z,16.77
2017-10-09T05:21:56.268Z,21.05
2017-10-09T05:24:25.627Z,17.10
2017-10-09T05:26:55.797Z,13.55
2017-10-09T05:29:24.994Z,11.27
2017-10-09T05:31:54.313Z,9.55
2017-10-09T05:34:23.708Z,11.80
2017-10-09T05:36:52.902Z,11.20
2017-10-09T05:39:22.528Z,9.60
2017-10-09T05:41:51.704Z,11.65
2017-10-09T05:44:21.198Z,10.27
2017-10-09T05:46:50.440Z,8.75
2017-10-09T05:49:20.429Z,8.65
2017-10-09T05:51:50.055Z,9.50
2017-10-09T05:54:19.511Z,8.70
2017-10-09T05:56:49.481Z,8.73
2017-10-09T05:59:18.625Z,9.10
2017-10-09T06:01:49.060Z,8.77
2017-10-09T06:04:18.310Z,10.30
2017-10-09T06:06:47.802Z,9.88
2017-10-09T06:09:17.542Z,10.03
2017-10-09T06:11:48.350Z,10.63
2017-10-09T06:14:17.703Z,10.43
2017-10-09T06:16:47.338Z,10.55
2017-10-09T06:19:16.622Z,10.40
2017-10-09T06:21:46.121Z,14.80
2017-10-09T06:24:15.290Z,13.60
2017-10-09T06:26:44.578Z,14.52
2017-10-09T06:29:13.898Z,14.23
2017-10-09T06:31:43.193Z,14.15
2017-10-09T06:34:12.388Z,13.90
2017-10-09T06:36:41.964Z,14.15
2017-10-09T06:39:11.410Z,11.75
2017-10-09T06:41:40.803Z,11.85
2017-10-09T06:44:10.225Z,10.55
2017-10-09T06:46:39.547Z,11.18
2017-10-09T06:49:09.241Z,11.70
2017-10-09T06:51:38.509Z,12.85
2017-10-09T06:54:07.784Z,11.90
2017-10-09T06:56:37.328Z,11.60
2017-10-09T06:59:07.118Z,11.82
2017-10-09T07:01:43.641Z,13.48
2017-10-09T07:04:13.071Z,13.27
2017-10-09T07:06:42.655Z,13.45
2017-10-09T07:09:12.193Z,13.62
2017-10-09T07:11:41.758Z,14.20
2017-10-09T07:14:12.270Z,12.23
2017-10-09T07:16:41.838Z,11.57
2017-10-09T07:19:11.405Z,14.13
2017-10-09T07:21:40.811Z,15.75
2017-10-09T07:24:10.378Z,19.20
2017-10-09T07:26:39.649Z,16.27
2017-10-09T07:29:08.951Z,16.45
2017-10-09T07:31:38.208Z,19.70
2017-10-09T07:34:08.137Z,28.27
2017-10-09T07:36:37.694Z,23.60
2017-10-09T07:39:13.792Z,18.62
2017-10-09T07:41:43.513Z,16.35
2017-10-09T07:44:13.265Z,16.35
2017-10-09T07:46:42.668Z,16.45
2017-10-09T07:49:12.083Z,17.60
2017-10-09T07:51:41.364Z,14.43
2017-10-09T07:54:10.669Z,15.00
2017-10-09T07:56:40.152Z,14.38
2017-10-09T07:59:09.741Z,15.35
2017-10-09T08:01:39.045Z,15.45
2017-10-09T08:04:08.537Z,15.82
2017-10-09T08:06:37.942Z,15.32
2017-10-09T08:09:07.652Z,14.02
2017-10-09T08:11:37.162Z,14.82
2017-10-09T08:14:06.193Z,14.48
2017-10-09T08:16:36.106Z,15.18
2017-10-09T08:19:05.669Z,12.90
2017-10-09T08:21:35.715Z,15.48
2017-10-09T08:24:05.114Z,17.02
2017-10-09T08:26:34.740Z,15.40
2017-10-09T08:29:03.991Z,13.75
2017-10-09T08:31:34.196Z,12.75
2017-10-09T08:34:03.774Z,15.40
2017-10-09T08:36:33.158Z,13.95
2017-10-09T08:39:02.385Z,15.15
2017-10-09T08:41:31.895Z,14.57
2017-10-09T08:44:01.904Z,13.18
2017-10-09T08:46:31.204Z,14.35
2017-10-09T08:49:00.648Z,14.13
2017-10-09T08:51:30.185Z,10.82
2017-10-09T08:53:59.508Z,14.50
2017-10-09T08:56:28.979Z,13.50
2017-10-09T08:58:58.574Z,13.15
2017-10-09T09:01:28.076Z,12.60
2017-10-09T09:03:57.920Z,10.32
2017-10-09T09:06:27.521Z,9.93
2017-10-09T09:08:56.983Z,11.90
2017-10-09T09:11:26.384Z,13.50
2017-10-09T09:13:55.859Z,12.77
2017-10-09T09:16:25.519Z,10.20
2017-10-09T09:18:56.172Z,10.55
2017-10-09T09:21:26.651Z,12.45
2017-10-09T09:23:55.922Z,12.68
2017-10-09T09:26:25.802Z,9.50
2017-10-09T09:28:55.147Z,12.32
2017-10-09T09:31:25.157Z,10.65
2017-10-09T09:33:54.339Z,10.82
2017-10-09T09:36:23.962Z,10.85
2017-10-09T09:38:53.138Z,11.30
2017-10-09T09:41:22.393Z,10.48
2017-10-09T09:43:51.707Z,9.82
2017-10-09T09:46:20.981Z,11.20
2017-10-09T09:48:50.131Z,9.65
2017-10-09T09:51:19.481Z,9.23
2017-10-09T09:53:48.976Z,9.88
2017-10-09T09:56:18.483Z,9.63
2017-10-09T09:58:47.641Z,12.73
2017-10-09T10:01:16.946Z,11.30
2017-10-09T10:03:46.188Z,10.15
2017-10-09T10:06:16.317Z,10.93
2017-10-09T10:08:45.619Z,9.48
2017-10-09T10:11:14.761Z,11.50
2017-10-09T10:13:44.783Z,11.55
2017-10-09T10:16:14.754Z,12.90
2017-10-09T10:18:43.931Z,10.20
2017-10-09T10:21:14.149Z,11.68
2017-10-09T10:23:43.461Z,11.95
2017-10-09T10:26:12.624Z,11.80
2017-10-09T10:28:41.861Z,9.27
2017-10-09T10:31:11.298Z,9.95
2017-10-09T10:33:40.832Z,8.43
2017-10-09T10:36:10.062Z,10.65
2017-10-09T10:38:39.109Z,10.40
2017-10-09T10:41:09.158Z,9.82
2017-10-09T10:43:38.738Z,9.65
2017-10-09T10:46:08.175Z,8.52
2017-10-09T10:48:37.236Z,10.43
2017-10-09T10:51:07.376Z,9.90
2017-10-09T10:53:36.467Z,9.75
2017-10-09T10:56:05.909Z,10.55
2017-10-09T10:58:35.405Z,8.90
2017-10-09T11:01:04.831Z,10.10
2017-10-09T11:03:33.969Z,9.65
2017-10-09T11:06:03.365Z,9.90
2017-10-09T11:08:32.741Z,9.10
2017-10-09T11:11:02.011Z,9.60
2017-10-09T11:13:31.451Z,10.48
2017-10-09T11:16:00.657Z,10.88
2017-10-09T11:18:30.146Z,12.15
2017-10-09T11:20:59.389Z,11.20
2017-10-09T11:23:29.710Z,11.63
2017-10-09T11:25:59.183Z,10.32
2017-10-09T11:28:28.345Z,11.38
2017-10-09T11:30:57.694Z,10.30
2017-10-09T11:33:27.808Z,10.60
2017-10-09T11:35:57.173Z,11.18
2017-10-09T11:38:26.840Z,11.50
2017-10-09T11:40:56.701Z,11.85
2017-10-09T11:43:26.345Z,11.60
2017-10-09T11:45:56.765Z,11.40
2017-10-09T11:48:26.330Z,14.23
2017-10-09T11:50:55.878Z,13.75
2017-10-09T11:53:25.143Z,12.88
2017-10-09T11:55:54.197Z,14.05
2017-10-09T11:58:23.368Z,11.12
2017-10-09T12:00:52.931Z,12.82
2017-10-09T12:03:22.502Z,9.93
2017-10-09T12:05:51.903Z,11.38
2017-10-09T12:08:22.015Z,12.85
2017-10-09T12:10:51.329Z,12.20
2017-10-09T12:13:20.852Z,13.32
2017-10-09T12:15:50.172Z,269.17
2017-10-09T12:18:19.577Z,186.68
2017-10-09T12:20:49.105Z,191.30
2017-10-09T12:23:18.960Z,71.32
2017-10-09T12:25:49.526Z,43.28
2017-10-09T12:28:19.069Z,32.63
2017-10-09T12:30:48.112Z,16.85
2017-10-09T12:33:17.147Z,11.65
2017-10-09T12:35:46.617Z,10.10
2017-10-09T12:38:15.873Z,11.10
2017-10-09T12:40:46.235Z,10.32
2017-10-09T12:43:15.888Z,14.27
2017-10-09T12:45:45.492Z,11.93
2017-10-09T12:48:14.997Z,10.93
2017-10-09T12:50:44.059Z,10.95
2017-10-09T12:53:13.362Z,13.30
2017-10-09T12:55:42.793Z,12.27
2017-10-09T12:58:12.012Z,10.93
2017-10-09T13:00:41.392Z,10.50
2017-10-09T13:03:10.683Z,10.23
2017-10-09T13:05:39.857Z,11.15
2017-10-09T13:08:09.438Z,12.23
2017-10-09T13:10:38.795Z,16.20
2017-10-09T13:13:08.038Z,14.82
2017-10-09T13:15:38.168Z,13.70
2017-10-09T13:18:07.879Z,14.73
2017-10-09T13:20:37.522Z,15.02
2017-10-09T13:23:07.104Z,15.93
2017-10-09T13:25:36.368Z,13.07
2017-10-09T13:28:07.391Z,9.60
2017-10-09T13:30:36.787Z,9.70
2017-10-09T13:33:06.852Z,10.45
2017-10-09T13:35:36.272Z,11.43
2017-10-09T13:38:05.710Z,11.45
2017-10-09T13:40:34.765Z,8.88
2017-10-09T13:43:04.045Z,10.40
2017-10-09T13:45:33.366Z,9.68
2017-10-09T13:48:02.682Z,9.95
2017-10-09T13:50:32.145Z,7.70
2017-10-09T13:53:01.552Z,9.38
2017-10-09T13:55:31.069Z,9.07
2017-10-09T13:58:00.243Z,10.50
2017-10-09T14:00:30.492Z,10.25
2017-10-09T14:02:59.869Z,13.50
2017-10-09T14:05:30.724Z,11.05
2017-10-09T14:08:00.057Z,14.23
2017-10-09T14:10:29.724Z,12.40
2017-10-09T14:12:59.446Z,12.75
2017-10-09T14:15:28.904Z,11.65
2017-10-09T14:17:58.397Z,11.88
2017-10-09T14:20:27.905Z,12.50
2017-10-09T14:22:57.091Z,10.60
2017-10-09T14:25:26.405Z,11.30
2017-10-09T14:27:55.929Z,13.62
2017-10-09T14:30:26.438Z,11.00
2017-10-09T14:40:24.421Z,13.80
2017-10-09T14:42:54.087Z,12.63
2017-10-09T14:45:23.840Z,12.65
2017-10-09T14:47:53.523Z,11.48
2017-10-09T14:50:23.218Z,12.27
2017-10-09T14:52:52.646Z,10.93
2017-10-09T14:55:21.509Z,10.50
2017-10-09T14:57:50.948Z,10.45
2017-10-09T15:00:20.671Z,11.68
2017-10-09T15:02:49.923Z,13.00
2017-10-09T15:05:19.403Z,12.57
2017-10-09T15:07:49.057Z,10.63
2017-10-09T15:10:18.697Z,11.20
2017-10-09T15:12:48.131Z,10.80
2017-10-09T15:15:17.351Z,11.25
2017-10-09T15:17:46.636Z,12.67
2017-10-09T15:20:16.133Z,14.77
2017-10-09T15:22:45.286Z,13.57
2017-10-09T15:25:14.659Z,14.35
2017-10-09T15:27:43.832Z,14.15
2017-10-09T15:30:13.074Z,15.27
2017-10-09T15:32:44.208Z,20.48
2017-10-09T15:35:13.809Z,20.15
2017-10-09T15:37:43.878Z,19.95
2017-10-09T15:40:13.201Z,14.57
2017-10-09T15:42:42.869Z,16.63
2017-10-09T15:45:12.127Z,16.67
2017-10-09T15:47:41.333Z,20.95
2017-10-09T15:50:10.691Z,16.27
2017-10-09T15:52:39.924Z,14.90
2017-10-09T15:55:09.337Z,13.57
2017-10-09T15:57:38.884Z,14.47
2017-10-09T16:00:08.116Z,15.97
2017-10-09T16:02:37.214Z,12.27
2017-10-09T16:05:06.852Z,9.90
2017-10-09T16:07:35.902Z,11.27
2017-10-09T16:10:05.027Z,12.00
2017-10-09T16:12:34.403Z,11.80
2017-10-09T16:15:04.077Z,11.07
2017-10-09T16:17:33.303Z,10.07
2017-10-09T16:20:02.576Z,8.30
2017-10-09T16:22:31.860Z,8.93
2017-10-09T16:25:01.225Z,7.67
2017-10-09T16:27:30.793Z,6.20
2017-10-09T16:30:00.375Z,8.80
2017-10-09T16:32:30.165Z,6.10
2017-10-09T16:35:00.766Z,5.73
2017-10-09T16:37:30.091Z,7.20
2017-10-09T16:39:59.432Z,6.47
2017-10-09T16:42:29.783Z,4.17
2017-10-09T16:44:59.114Z,5.47
2017-10-09T16:47:28.296Z,4.93
2017-10-09T16:49:57.780Z,5.30
2017-10-09T16:52:26.893Z,4.90
2017-10-09T16:54:56.286Z,5.60
2017-10-09T16:57:25.564Z,5.40
2017-10-09T16:59:55.560Z,5.00
2017-10-09T17:02:24.971Z,5.30
2017-10-09T17:04:54.321Z,4.83
2017-10-09T17:07:23.836Z,6.53
2017-10-09T17:09:53.153Z,4.93
2017-10-09T17:12:22.453Z,5.50
2017-10-09T17:14:51.700Z,6.57
2017-10-09T17:17:22.018Z,5.70
2017-10-09T17:19:51.274Z,5.90
2017-10-09T17:22:20.709Z,5.30
2017-10-09T17:24:51.033Z,6.40
2017-10-09T17:27:20.451Z,5.13
2017-10-09T17:29:49.869Z,6.60
2017-10-09T17:32:19.344Z,6.13
2017-10-09T17:34:48.539Z,5.93
2017-10-09T17:37:19.347Z,5.60
2017-10-09T17:39:48.735Z,5.87
2017-10-09T17:42:18.434Z,7.17
2017-10-09T17:44:47.915Z,6.77
2017-10-09T17:47:17.158Z,6.70
2017-10-09T17:49:46.468Z,6.67
2017-10-09T17:52:15.519Z,8.60
2017-10-09T17:54:44.924Z,6.07
2017-10-09T17:57:14.239Z,6.77
2017-10-09T17:59:43.519Z,7.30
2017-10-09T18:02:12.857Z,7.40
2017-10-09T18:04:42.071Z,7.23
2017-10-09T18:07:11.347Z,6.10
2017-10-09T18:09:40.882Z,7.47
2017-10-09T18:12:09.947Z,7.20
2017-10-09T18:14:39.233Z,7.10
2017-10-09T18:17:08.599Z,7.10
2017-10-09T18:19:38.082Z,6.73
2017-10-09T18:22:07.227Z,6.10
2017-10-09T18:24:36.758Z,6.17
2017-10-09T18:27:06.073Z,5.63
2017-10-09T18:29:36.062Z,5.10
2017-10-09T18:32:05.658Z,5.50
2017-10-09T18:34:35.027Z,4.83
2017-10-09T18:37:04.077Z,5.63
2017-10-09T18:39:33.900Z,5.93
2017-10-09T18:42:03.175Z,4.80
2017-10-09T18:44:33.184Z,5.07
2017-10-09T18:47:02.640Z,5.90
2017-10-09T18:49:32.013Z,5.63
2017-10-09T18:52:01.415Z,5.50
2017-10-09T18:54:30.497Z,4.93
2017-10-09T18:56:59.903Z,5.37
2017-10-09T18:59:29.220Z,5.20
2017-10-09T19:01:58.621Z,6.23
2017-10-09T19:04:27.830Z,4.80
2017-10-09T19:06:57.343Z,5.77
2017-10-09T19:09:26.947Z,5.40
2017-10-09T19:11:56.901Z,5.70
2017-10-09T19:14:26.564Z,5.90
2017-10-09T19:16:55.843Z,6.50
2017-10-09T19:19:25.285Z,6.30
2017-10-09T19:21:54.538Z,6.50
2017-10-09T19:24:23.626Z,5.27
2017-10-09T19:26:53.005Z,6.17
2017-10-09T19:29:22.866Z,5.97
2017-10-09T19:31:51.920Z,5.80
2017-10-09T19:34:21.111Z,6.10
2017-10-09T19:36:50.112Z,6.00
2017-10-09T19:39:20.230Z,5.03
2017-10-09T19:41:50.826Z,5.60
2017-10-09T19:44:20.207Z,5.20
2017-10-09T19:46:49.516Z,5.40
2017-10-09T19:49:18.795Z,5.13
2017-10-09T19:51:48.333Z,4.37
2017-10-09T19:54:17.390Z,5.00
2017-10-09T19:56:46.919Z,4.63
2017-10-09T19:59:16.422Z,4.47
2017-10-09T20:01:45.931Z,5.17
2017-10-09T20:04:15.185Z,3.83
2017-10-09T20:06:44.533Z,3.57
2017-10-09T20:09:13.937Z,3.83
2017-10-09T20:11:43.829Z,3.53
2017-10-09T20:14:13.017Z,3.80
2017-10-09T20:16:42.345Z,3.50
2017-10-09T20:19:11.970Z,3.50
2017-10-09T20:21:41.100Z,3.20
2017-10-09T20:24:10.394Z,3.10
2017-10-09T20:26:39.889Z,3.00
2017-10-09T20:29:09.082Z,3.30
2017-10-09T20:31:38.134Z,3.70
2017-10-09T20:34:07.536Z,3.17
2017-10-09T20:36:38.716Z,2.87
2017-10-09T20:39:07.953Z,3.70
2017-10-09T20:41:37.392Z,3.37
2017-10-09T20:44:08.370Z,3.37
2017-10-09T20:46:37.715Z,3.17
2017-10-09T20:49:06.467Z,3.80
2017-10-09T20:51:35.945Z,3.67
2017-10-09T20:54:05.166Z,3.47
2017-10-09T20:56:34.144Z,3.37
2017-10-09T20:59:03.582Z,3.53
2017-10-09T21:01:32.999Z,3.20
2017-10-09T21:04:02.130Z,3.23
2017-10-09T21:06:31.656Z,2.73
2017-10-09T21:09:01.125Z,3.87
2017-10-09T21:11:30.188Z,3.47
2017-10-09T21:14:00.559Z,3.30
2017-10-09T21:16:29.901Z,2.70
2017-10-09T21:18:59.204Z,3.67
2017-10-09T21:21:28.734Z,3.40
2017-10-09T21:23:58.226Z,3.20
2017-10-09T21:26:28.952Z,3.33
2017-10-09T21:28:58.277Z,3.43
2017-10-09T21:31:27.588Z,3.37
2017-10-09T21:33:56.872Z,3.03
2017-10-09T21:36:26.065Z,2.70
2017-10-09T21:38:56.313Z,2.90
2017-10-09T21:41:25.660Z,3.07
2017-10-09T21:43:54.858Z,3.13
2017-10-09T21:46:24.960Z,3.10
2017-10-09T21:48:54.276Z,3.00
2017-10-09T21:51:23.860Z,2.70
2017-10-09T21:53:53.219Z,3.80
2017-10-09T21:56:23.277Z,2.83
2017-10-09T21:58:52.566Z,3.10
2017-10-09T22:01:21.950Z,2.70
2017-10-09T22:03:51.101Z,2.87
2017-10-09T22:06:20.237Z,2.53
2017-10-09T22:08:49.372Z,2.67
2017-10-09T22:11:18.741Z,3.10
2017-10-09T22:13:48.234Z,3.00
2017-10-09T22:16:18.293Z,2.30
2017-10-09T22:18:47.609Z,2.40
2017-10-09T22:21:16.919Z,3.27
2017-10-09T22:23:47.032Z,2.90
2017-10-09T22:26:16.372Z,2.93
2017-10-09T22:28:46.294Z,2.87
2017-10-09T22:31:16.697Z,2.63
2017-10-09T22:33:45.934Z,2.87
2017-10-09T22:36:15.051Z,3.60
2017-10-09T22:38:45.136Z,2.20
2017-10-09T22:41:14.441Z,2.77
2017-10-09T22:43:43.696Z,2.93
2017-10-09T22:46:12.933Z,2.60
2017-10-09T22:48:42.901Z,2.43
2017-10-09T22:51:12.322Z,2.67
2017-10-09T22:53:41.619Z,2.50
2017-10-09T22:56:11.011Z,2.80
2017-10-09T22:58:40.190Z,2.97
2017-10-09T23:01:09.887Z,2.60
2017-10-09T23:03:39.068Z,3.20
2017-10-09T23:06:09.146Z,2.63
2017-10-09T23:08:38.934Z,3.10
2017-10-09T23:11:08.156Z,2.90
2017-10-09T23:13:38.065Z,2.80
2017-10-09T23:16:07.333Z,2.87
2017-10-09T23:18:36.777Z,2.97
2017-10-09T23:21:05.470Z,3.13
2017-10-09T23:23:34.191Z,2.10
2017-10-09T23:26:03.039Z,2.57
2017-10-09T23:28:32.281Z,2.83
2017-10-09T23:31:01.538Z,2.33
2017-10-09T23:33:30.559Z,2.63
2017-10-09T23:35:59.950Z,2.77
2017-10-09T23:38:29.095Z,2.60
2017-10-09T23:40:58.157Z,2.70
2017-10-09T23:43:28.397Z,2.90
2017-10-09T23:45:58.536Z,3.00
2017-10-09T23:48:27.878Z,2.70
2017-10-09T23:50:58.421Z,2.70
2017-10-09T23:53:27.441Z,2.63
2017-10-09T23:55:57.557Z,2.57
2017-10-09T23:58:27.693Z,2.80
